Time;durP1;ratioP1;P1;durP2;ratioP2;P2;SDS_P1;SDS_P2;PMS_P1;PMS_P2;Temp;Humidity;BMP_temperature;BMP_pressure;BME280_temperature;BME280_humidity;BME280_pressure;Samples;Min_cycle;Max_cycle;Signal;HPM_P1;HPM_P2
2022/02/22 00:02:21;;;;;;;;;;;7.10;99.90;;;;;;5055690;28;19916;-68
2022/02/22 00:04:47;;;;;;;;;;;7.20;99.90;;;;;;5039684;28;19987;-64
2022/02/22 00:07:13;;;;;;;;;;;7.10;99.90;;;;;;5037788;28;19951;-64
2022/02/22 00:09:39;;;;;;;;;;;7.10;99.90;;;;;;5037774;28;20376;-62
2022/02/22 00:12:04;;;;;;;;;;;7.20;99.90;;;;;;5054854;28;19912;-62
2022/02/22 00:14:30;;;;;;;;;;;7.10;99.90;;;;;;5037518;28;19909;-63
2022/02/22 00:16:56;;;;;;;;;;;7.10;99.90;;;;;;5055687;28;19917;-63
2022/02/22 00:19:22;;;;;;;;;;;7.20;99.90;;;;;;5055189;28;20351;-63
2022/02/22 00:21:48;;;;;;;;;;;7.20;99.90;;;;;;5057601;28;19915;-64
2022/02/22 00:24:13;;;;;;;;;;;7.20;99.90;;;;;;5055514;28;19909;-63
2022/02/22 00:26:39;;;;;;;;;;;7.10;99.90;;;;;;5038496;28;19904;-64
2022/02/22 00:29:04;;;;;;;;;;;7.00;99.90;;;;;;5055325;28;20269;-62
2022/02/22 00:31:30;;;;;;;;;;;7.00;99.90;;;;;;5055781;28;19963;-63
2022/02/22 00:33:55;;;;;;;;;;;7.10;99.90;;;;;;5056560;28;19904;-64
2022/02/22 00:36:21;;;;;;;;;;;7.10;99.90;;;;;;5037557;28;19964;-64
2022/02/22 00:38:49;;;;;;;;;;;7.10;99.90;;;;;;5056720;28;20250;-63
2022/02/22 00:41:16;;;;;;;;;;;7.10;99.90;;;;;;5055037;28;19963;-64
2022/02/22 00:43:41;;;;;;;;;;;7.10;99.90;;;;;;5056162;28;19960;-64
2022/02/22 00:46:07;;;;;;;;;;;7.20;99.90;;;;;;5054700;28;19959;-63
2022/02/22 00:48:32;;;;;;;;;;;7.20;99.90;;;;;;5037435;28;19905;-64
2022/02/22 00:50:58;;;;;;;;;;;7.20;99.90;;;;;;5054315;28;20266;-64
2022/02/22 00:53:23;;;;;;;;;;;7.20;99.90;;;;;;5054846;28;20003;-64
2022/02/22 00:55:49;;;;;;;;;;;7.10;99.90;;;;;;5037249;28;19992;-64
2022/02/22 00:58:14;;;;;;;;;;;7.20;99.90;;;;;;5036785;28;19913;-63
2022/02/22 01:00:40;;;;;;;;;;;7.20;99.90;;;;;;5055524;28;19908;-64
2022/02/22 01:03:05;;;;;;;;;;;7.10;99.90;;;;;;5054844;28;19908;-63
2022/02/22 01:05:31;;;;;;;;;;;7.10;99.90;;;;;;5055357;28;20255;-65
2022/02/22 01:07:56;;;;;;;;;;;7.20;99.90;;;;;;5054734;28;19911;-62
2022/02/22 01:10:22;;;;;;;;;;;7.10;99.90;;;;;;5054087;28;20196;-63
2022/02/22 01:12:48;;;;;;;;;;;7.10;99.90;;;;;;5054748;28;19967;-62
2022/02/22 01:15:13;;;;;;;;;;;7.00;99.90;;;;;;5036265;28;20316;-64
2022/02/22 01:17:39;;;;;;;;;;;7.10;99.90;;;;;;5022276;28;19948;-65
2022/02/22 01:20:08;;;;;;;;;;;7.10;99.90;;;;;;5015839;28;19929;-65
2022/02/22 01:22:34;;;;;;;;;;;7.10;99.90;;;;;;5016733;28;19909;-64
2022/02/22 01:25:00;;;;;;;;;;;7.10;99.90;;;;;;5016604;28;19984;-68
2022/02/22 01:27:25;;;;;;;;;;;7.10;99.90;;;;;;5015395;28;19932;-65
2022/02/22 01:29:51;;;;;;;;;;;7.00;99.90;;;;;;5016014;28;19976;-63
2022/02/22 01:32:17;;;;;;;;;;;7.10;99.90;;;;;;5013826;28;19905;-63
2022/02/22 01:34:42;;;;;;;;;;;7.10;99.90;;;;;;5015177;28;20000;-63
2022/02/22 01:37:07;;;;;;;;;;;7.10;99.90;;;;;;5014679;28;19906;-64
2022/02/22 01:39:33;;;;;;;;;;;7.10;99.90;;;;;;5012018;28;19909;-65
2022/02/22 01:42:00;;;;;;;;;;;7.00;99.90;;;;;;5002143;28;19917;-62
2022/02/22 01:44:26;;;;;;;;;;;6.90;99.90;;;;;;4992815;28;19920;-62
2022/02/22 01:46:58;;;;;;;;;;;6.80;99.90;;;;;;4995007;28;19905;-64
2022/02/22 01:49:24;;;;;;;;;;;6.80;99.90;;;;;;4993491;28;19906;-62
2022/02/22 01:51:50;;;;;;;;;;;6.90;99.90;;;;;;4993685;28;19917;-64
2022/02/22 01:54:16;;;;;;;;;;;6.90;99.90;;;;;;4993878;28;19906;-63
2022/02/22 01:56:41;;;;;;;;;;;6.90;99.90;;;;;;4993217;28;20275;-64
2022/02/22 01:59:07;;;;;;;;;;;6.80;99.90;;;;;;4993726;28;19941;-65
2022/02/22 02:01:33;;;;;;;;;;;6.80;99.90;;;;;;4994313;28;19909;-63
2022/02/22 02:03:59;;;;;;;;;;;6.80;99.90;;;;;;4994507;28;19910;-63
2022/02/22 02:06:24;;;;;;;;;;;6.80;99.90;;;;;;4992636;28;20000;-63
2022/02/22 02:08:50;;;;;;;;;;;6.90;99.90;;;;;;4993963;28;19944;-63
2022/02/22 02:11:15;;;;;;;;;;;6.80;99.90;;;;;;4992626;28;19913;-63
2022/02/22 02:13:41;;;;;;;;;;;6.80;99.90;;;;;;4994617;28;20248;-63
2022/02/22 02:16:07;;;;;;;;;;;6.70;99.90;;;;;;4995871;28;20363;-72
2022/02/22 02:18:33;;;;;;;;;;;6.70;99.90;;;;;;5018613;28;20273;-63
2022/02/22 02:20:59;;;;;;;;;;;6.70;99.90;;;;;;5018786;28;19916;-63
2022/02/22 02:23:24;;;;;;;;;;;6.70;99.90;;;;;;5035802;28;20055;-65
2022/02/22 02:25:50;;;;;;;;;;;6.70;99.90;;;;;;5034328;28;19961;-62
2022/02/22 02:28:15;;;;;;;;;;;6.70;99.90;;;;;;5033388;28;19979;-63
2022/02/22 02:30:42;;;;;;;;;;;6.70;99.90;;;;;;5033930;28;19912;-62
2022/02/22 02:33:07;;;;;;;;;;;6.70;99.90;;;;;;5016811;28;19905;-71
2022/02/22 02:35:33;;;;;;;;;;;6.70;99.90;;;;;;5034867;28;19905;-67
2022/02/22 02:37:59;;;;;;;;;;;6.60;99.90;;;;;;5035506;28;19952;-66
2022/02/22 02:40:24;;;;;;;;;;;6.60;99.90;;;;;;5017194;28;19952;-65
2022/02/22 02:42:50;;;;;;;;;;;6.70;99.90;;;;;;5035163;28;19917;-63
2022/02/22 02:45:15;;;;;;;;;;;6.70;99.90;;;;;;5017165;28;19913;-65
2022/02/22 02:47:41;;;;;;;;;;;6.70;99.90;;;;;;5017502;28;20012;-67
2022/02/22 02:50:07;;;;;;;;;;;6.70;99.90;;;;;;5034753;28;19905;-63
2022/02/22 02:52:33;;;;;;;;;;;6.70;99.90;;;;;;5015193;28;19912;-63
2022/02/22 02:54:58;;;;;;;;;;;6.50;99.90;;;;;;5032606;28;19905;-63
2022/02/22 02:57:24;;;;;;;;;;;6.60;99.90;;;;;;5015166;28;20282;-64
2022/02/22 02:59:49;;;;;;;;;;;6.60;99.90;;;;;;5033442;28;19909;-63
2022/02/22 03:02:15;;;;;;;;;;;6.60;99.90;;;;;;5014981;28;19916;-66
2022/02/22 03:04:41;;;;;;;;;;;6.70;99.90;;;;;;5032936;28;19909;-63
2022/02/22 03:07:08;;;;;;;;;;;6.60;99.90;;;;;;5015612;28;19905;-64
2022/02/22 03:09:33;;;;;;;;;;;6.50;99.90;;;;;;5033608;28;20269;-64
2022/02/22 03:11:59;;;;;;;;;;;6.60;99.90;;;;;;5033301;28;20003;-64
2022/02/22 03:14:24;;;;;;;;;;;6.60;99.90;;;;;;5016388;28;19913;-64
2022/02/22 03:16:50;;;;;;;;;;;6.50;99.90;;;;;;5015411;28;19921;-66
2022/02/22 03:19:15;;;;;;;;;;;6.50;99.90;;;;;;5016608;28;19948;-64
2022/02/22 03:21:41;;;;;;;;;;;6.50;99.90;;;;;;5016970;28;19916;-64
2022/02/22 03:24:07;;;;;;;;;;;6.50;99.90;;;;;;5015637;28;19909;-63
2022/02/22 03:26:32;;;;;;;;;;;6.40;99.90;;;;;;5016522;28;20274;-63
2022/02/22 03:28:59;;;;;;;;;;;6.40;99.90;;;;;;5015718;28;20274;-64
2022/02/22 03:31:26;;;;;;;;;;;6.40;99.90;;;;;;5014930;28;19961;-66
2022/02/22 03:33:52;;;;;;;;;;;6.50;99.90;;;;;;5018010;28;19905;-63
2022/02/22 03:36:21;;;;;;;;;;;6.50;99.90;;;;;;5016819;28;19905;-63
2022/02/22 03:38:48;;;;;;;;;;;6.50;99.90;;;;;;5017542;28;20256;-62
2022/02/22 03:41:13;;;;;;;;;;;6.50;99.90;;;;;;5015104;28;19944;-64
2022/02/22 03:43:39;;;;;;;;;;;6.50;99.90;;;;;;5017224;28;19965;-63
2022/02/22 03:46:04;;;;;;;;;;;6.60;99.90;;;;;;5016330;28;19964;-64
2022/02/22 03:48:30;;;;;;;;;;;6.50;99.90;;;;;;4998817;28;19909;-63
2022/02/22 03:50:55;;;;;;;;;;;6.40;99.90;;;;;;5016161;28;19959;-62
2022/02/22 03:53:21;;;;;;;;;;;6.40;99.90;;;;;;5015789;28;19905;-67
2022/02/22 03:55:47;;;;;;;;;;;6.40;99.90;;;;;;5015560;28;20012;-63
2022/02/22 03:58:13;;;;;;;;;;;6.40;99.90;;;;;;5016011;28;19972;-69
2022/02/22 04:00:39;;;;;;;;;;;6.40;99.90;;;;;;5016179;28;19912;-64
2022/02/22 04:03:04;;;;;;;;;;;6.30;99.90;;;;;;5016151;28;20455;-63
2022/02/22 04:05:30;;;;;;;;;;;6.40;99.90;;;;;;5015471;28;19914;-63
2022/02/22 04:07:56;;;;;;;;;;;6.40;99.90;;;;;;5016294;28;19960;-64
2022/02/22 04:10:21;;;;;;;;;;;6.30;99.90;;;;;;5015480;28;20351;-64
2022/02/22 04:12:47;;;;;;;;;;;6.40;99.90;;;;;;5016425;28;19906;-62
2022/02/22 04:15:13;;;;;;;;;;;6.40;99.90;;;;;;5016400;28;19913;-63
2022/02/22 04:17:39;;;;;;;;;;;6.50;99.90;;;;;;5028549;28;19917;-63
2022/02/22 04:20:04;;;;;;;;;;;6.50;99.90;;;;;;5035710;28;20365;-63
2022/02/22 04:22:30;;;;;;;;;;;6.40;99.90;;;;;;5035681;28;19913;-63
2022/02/22 04:24:55;;;;;;;;;;;6.40;99.90;;;;;;5038120;28;19934;-65
2022/02/22 04:27:21;;;;;;;;;;;6.40;99.90;;;;;;5037649;28;20362;-64
2022/02/22 04:29:46;;;;;;;;;;;6.30;99.90;;;;;;5020641;28;19944;-64
2022/02/22 04:32:12;;;;;;;;;;;6.20;99.90;;;;;;5020160;28;19905;-67
2022/02/22 04:34:38;;;;;;;;;;;6.30;99.90;;;;;;5019431;28;19932;-62
2022/02/22 04:37:04;;;;;;;;;;;6.20;99.90;;;;;;5037391;28;19958;-64
2022/02/22 04:39:29;;;;;;;;;;;6.20;99.90;;;;;;5036368;28;19905;-65
2022/02/22 04:41:55;;;;;;;;;;;6.30;99.90;;;;;;5020248;28;19967;-65
2022/02/22 04:44:20;;;;;;;;;;;6.30;99.90;;;;;;5019597;28;19920;-67
2022/02/22 04:46:46;;;;;;;;;;;6.40;99.90;;;;;;5020706;28;19912;-64
2022/02/22 04:49:12;;;;;;;;;;;6.40;99.90;;;;;;5019726;28;19959;-63
2022/02/22 04:51:38;;;;;;;;;;;6.40;99.90;;;;;;5035170;28;20008;-63
2022/02/22 04:54:04;;;;;;;;;;;6.30;99.90;;;;;;5034774;28;19905;-63
2022/02/22 04:56:29;;;;;;;;;;;6.20;99.90;;;;;;5034553;28;19959;-63
2022/02/22 04:58:55;;;;;;;;;;;6.20;99.90;;;;;;5034841;28;19905;-68
2022/02/22 05:01:21;;;;;;;;;;;6.20;99.90;;;;;;5016685;28;19968;-63
2022/02/22 05:03:47;;;;;;;;;;;6.20;99.90;;;;;;5035220;28;19929;-63
2022/02/22 05:06:12;;;;;;;;;;;6.20;99.90;;;;;;5019099;28;19963;-65
2022/02/22 05:08:38;;;;;;;;;;;6.20;99.90;;;;;;5036970;28;19912;-66
2022/02/22 05:11:04;;;;;;;;;;;6.20;99.90;;;;;;5037258;28;19905;-65
2022/02/22 05:13:30;;;;;;;;;;;6.20;99.90;;;;;;5036478;28;19913;-63
2022/02/22 05:15:55;;;;;;;;;;;6.10;99.90;;;;;;5018797;28;19909;-64
2022/02/22 05:18:21;;;;;;;;;;;6.10;99.90;;;;;;5035908;28;19924;-63
2022/02/22 05:20:55;;;;;;;;;;;6.10;99.90;;;;;;5035529;28;20354;-63
2022/02/22 05:23:25;;;;;;;;;;;6.20;99.90;;;;;;5016468;28;20377;-64
2022/02/22 05:25:51;;;;;;;;;;;6.30;99.90;;;;;;5016447;28;19916;-63
2022/02/22 05:28:17;;;;;;;;;;;6.30;99.90;;;;;;5017155;28;19909;-64
2022/02/22 05:30:45;;;;;;;;;;;6.30;99.90;;;;;;5015983;28;19912;-64
2022/02/22 05:33:11;;;;;;;;;;;6.40;99.90;;;;;;5034225;28;19913;-64
2022/02/22 05:35:37;;;;;;;;;;;6.40;99.90;;;;;;5033994;28;19905;-64
2022/02/22 05:38:02;;;;;;;;;;;6.40;99.90;;;;;;5016244;28;19906;-63
2022/02/22 05:40:28;;;;;;;;;;;6.40;99.90;;;;;;5033658;28;19905;-64
2022/02/22 05:42:53;;;;;;;;;;;6.40;99.90;;;;;;5016244;28;19913;-65
2022/02/22 05:45:19;;;;;;;;;;;6.50;99.90;;;;;;5033881;28;19913;-73
2022/02/22 05:47:44;;;;;;;;;;;6.50;99.90;;;;;;5032487;28;19928;-64
2022/02/22 05:50:10;;;;;;;;;;;6.50;99.90;;;;;;5033713;28;19909;-63
2022/02/22 05:52:35;;;;;;;;;;;6.50;99.90;;;;;;5033245;28;19912;-64
2022/02/22 05:55:01;;;;;;;;;;;6.50;99.90;;;;;;5016403;28;19905;-63
2022/02/22 05:57:27;;;;;;;;;;;6.60;99.90;;;;;;5015361;28;19905;-64
2022/02/22 05:59:52;;;;;;;;;;;6.60;99.90;;;;;;5016215;28;19905;-64
2022/02/22 06:02:18;;;;;;;;;;;6.60;99.90;;;;;;5015917;28;20294;-63
2022/02/22 06:04:43;;;;;;;;;;;6.60;99.90;;;;;;5033026;28;19909;-63
2022/02/22 06:07:09;;;;;;;;;;;6.60;99.90;;;;;;5016351;28;19927;-66
2022/02/22 06:09:37;;;;;;;;;;;6.50;99.90;;;;;;5033025;28;19905;-64
2022/02/22 06:12:02;;;;;;;;;;;6.50;99.90;;;;;;5016125;28;19931;-63
2022/02/22 06:14:28;;;;;;;;;;;6.60;99.90;;;;;;5033519;28;20437;-64
2022/02/22 06:16:54;;;;;;;;;;;6.60;99.90;;;;;;5016870;28;19991;-69
2022/02/22 06:19:20;;;;;;;;;;;6.60;99.90;;;;;;5034992;28;19912;-64
2022/02/22 06:21:46;;;;;;;;;;;6.60;99.90;;;;;;5033331;28;20372;-68
2022/02/22 06:24:11;;;;;;;;;;;6.50;99.90;;;;;;5032573;28;20013;-63
2022/02/22 06:26:37;;;;;;;;;;;6.50;99.90;;;;;;5015055;28;20278;-63
2022/02/22 06:29:03;;;;;;;;;;;6.50;99.90;;;;;;5033281;28;19912;-64
2022/02/22 06:31:29;;;;;;;;;;;6.50;99.90;;;;;;5032462;28;19905;-63
2022/02/22 06:33:54;;;;;;;;;;;6.60;99.90;;;;;;5033687;28;19912;-63
2022/02/22 06:36:20;;;;;;;;;;;6.50;99.90;;;;;;5033284;28;19932;-63
2022/02/22 06:38:46;;;;;;;;;;;6.50;99.90;;;;;;5032902;28;19905;-64
2022/02/22 06:41:11;;;;;;;;;;;6.50;99.90;;;;;;5015484;28;19906;-63
2022/02/22 06:43:37;;;;;;;;;;;6.50;99.90;;;;;;5014969;28;19913;-63
2022/02/22 06:46:03;;;;;;;;;;;6.60;99.90;;;;;;5033445;28;19920;-65
2022/02/22 06:48:28;;;;;;;;;;;6.50;99.90;;;;;;5033366;28;19951;-66
2022/02/22 06:50:54;;;;;;;;;;;6.60;99.90;;;;;;5019236;28;19905;-64
2022/02/22 06:53:19;;;;;;;;;;;6.50;99.90;;;;;;5019443;28;19952;-63
2022/02/22 06:55:45;;;;;;;;;;;6.60;99.90;;;;;;5019009;28;20303;-64
2022/02/22 06:58:10;;;;;;;;;;;6.70;99.90;;;;;;5036843;28;20357;-64
2022/02/22 07:00:37;;;;;;;;;;;6.70;99.90;;;;;;5019127;28;20346;-64
2022/02/22 07:03:04;;;;;;;;;;;6.60;99.90;;;;;;5037214;28;19909;-63
2022/02/22 07:05:30;;;;;;;;;;;6.60;99.90;;;;;;5018926;28;19909;-63
2022/02/22 07:07:57;;;;;;;;;;;6.50;99.90;;;;;;5019569;28;19955;-63
2022/02/22 07:10:23;;;;;;;;;;;6.60;99.90;;;;;;5020103;28;19999;-68
2022/02/22 07:12:49;;;;;;;;;;;6.60;99.90;;;;;;5020640;28;19932;-72
2022/02/22 07:15:15;;;;;;;;;;;6.60;99.90;;;;;;5039367;28;19988;-63
2022/02/22 07:17:47;;;;;;;;;;;6.70;99.90;;;;;;5038701;28;19964;-64
2022/02/22 07:20:14;;;;;;;;;;;6.80;99.90;;;;;;5021436;28;19905;-70
2022/02/22 07:22:40;;;;;;;;;;;6.80;99.90;;;;;;5037147;28;19917;-65
2022/02/22 07:25:09;;;;;;;;;;;6.80;99.90;;;;;;5035905;28;19915;-70
2022/02/22 07:27:35;;;;;;;;;;;7.00;99.90;;;;;;5038016;28;19905;-66
2022/02/22 07:30:00;;;;;;;;;;;6.90;99.90;;;;;;5038939;28;19915;-63
2022/02/22 07:32:26;;;;;;;;;;;7.00;99.90;;;;;;5020017;28;19905;-72
2022/02/22 07:34:52;;;;;;;;;;;6.90;99.90;;;;;;5052999;28;19931;-64
2022/02/22 07:37:17;;;;;;;;;;;6.90;99.90;;;;;;5038528;28;20351;-62
2022/02/22 07:39:43;;;;;;;;;;;6.70;99.90;;;;;;5022723;28;19913;-65
2022/02/22 07:42:08;;;;;;;;;;;6.70;99.90;;;;;;5031592;28;20305;-63
2022/02/22 07:44:34;;;;;;;;;;;6.80;99.90;;;;;;5013545;28;19913;-64
2022/02/22 07:46:59;;;;;;;;;;;6.80;99.90;;;;;;5014563;28;19909;-66
2022/02/22 07:49:25;;;;;;;;;;;6.90;99.90;;;;;;5014943;28;20406;-64
2022/02/22 07:51:51;;;;;;;;;;;7.00;99.90;;;;;;5013958;28;19906;-65
2022/02/22 07:54:16;;;;;;;;;;;7.00;99.90;;;;;;5014899;28;20369;-63
2022/02/22 07:56:43;;;;;;;;;;;7.30;99.90;;;;;;5014301;28;20346;-63
2022/02/22 07:59:08;;;;;;;;;;;7.70;99.90;;;;;;5014909;28;20001;-63
2022/02/22 08:01:34;;;;;;;;;;;8.00;99.90;;;;;;5014141;28;19977;-67
2022/02/22 08:03:59;;;;;;;;;;;8.30;99.90;;;;;;5019695;28;19914;-65
2022/02/22 08:06:25;;;;;;;;;;;8.40;99.90;;;;;;5017423;28;19909;-67
2022/02/22 08:08:51;;;;;;;;;;;8.40;99.90;;;;;;5028414;28;19956;-62
2022/02/22 08:11:16;;;;;;;;;;;8.30;99.90;;;;;;5009398;28;19912;-63
2022/02/22 08:13:42;;;;;;;;;;;8.10;99.90;;;;;;5050540;28;19908;-63
2022/02/22 08:16:08;;;;;;;;;;;8.20;99.90;;;;;;5038694;28;20047;-63
2022/02/22 08:18:34;;;;;;;;;;;8.30;99.90;;;;;;5055064;28;19952;-64
2022/02/22 08:20:59;;;;;;;;;;;8.60;99.90;;;;;;5040356;28;19909;-63
2022/02/22 08:23:27;;;;;;;;;;;8.60;99.90;;;;;;5035527;28;19916;-64
2022/02/22 08:25:52;;;;;;;;;;;8.70;99.90;;;;;;5021181;28;19999;-63
2022/02/22 08:28:18;;;;;;;;;;;8.50;99.90;;;;;;5053092;28;19951;-63
2022/02/22 08:30:43;;;;;;;;;;;9.00;99.90;;;;;;5055079;28;19905;-61
2022/02/22 08:33:09;;;;;;;;;;;9.90;99.90;;;;;;5047345;28;20357;-61
2022/02/22 08:35:35;;;;;;;;;;;11.20;99.90;;;;;;5034968;28;20334;-65
2022/02/22 08:38:01;;;;;;;;;;;12.60;99.90;;;;;;5031214;28;19912;-62
2022/02/22 08:40:27;;;;;;;;;;;11.80;98.20;;;;;;5047079;28;19912;-63
2022/02/22 08:42:52;;;;;;;;;;;11.80;98.70;;;;;;5036537;28;20366;-63
2022/02/22 08:45:18;;;;;;;;;;;11.40;98.40;;;;;;5035625;28;20347;-67
2022/02/22 08:47:43;;;;;;;;;;;11.60;98.40;;;;;;5025515;28;20070;-63
2022/02/22 08:50:09;;;;;;;;;;;11.80;97.80;;;;;;5041528;28;19999;-67
2022/02/22 08:52:35;;;;;;;;;;;11.80;97.60;;;;;;5023418;28;20377;-66
2022/02/22 08:55:00;;;;;;;;;;;11.70;97.30;;;;;;5034756;28;19959;-67
2022/02/22 08:57:27;;;;;;;;;;;11.70;97.20;;;;;;5043372;28;19972;-64
2022/02/22 08:59:53;;;;;;;;;;;12.00;96.70;;;;;;5035088;28;19908;-66
2022/02/22 09:02:18;;;;;;;;;;;12.20;96.80;;;;;;5019039;28;20051;-64
2022/02/22 09:04:44;;;;;;;;;;;12.40;96.10;;;;;;5017187;28;19959;-64
2022/02/22 09:07:09;;;;;;;;;;;11.90;95.80;;;;;;5033608;28;20283;-64
2022/02/22 09:09:35;;;;;;;;;;;11.50;97.00;;;;;;5051817;28;19952;-64
2022/02/22 09:12:01;;;;;;;;;;;11.50;97.00;;;;;;5052961;28;19919;-67
2022/02/22 09:14:27;;;;;;;;;;;11.50;97.00;;;;;;5034865;28;19913;-64
2022/02/22 09:16:52;;;;;;;;;;;10.80;97.60;;;;;;5043925;28;19920;-63
2022/02/22 09:19:18;;;;;;;;;;;10.40;98.60;;;;;;5035056;28;20397;-67
2022/02/22 09:21:44;;;;;;;;;;;10.10;99.20;;;;;;5035909;28;19908;-63
2022/02/22 09:24:09;;;;;;;;;;;10.20;99.50;;;;;;5036319;28;19908;-67
2022/02/22 09:26:35;;;;;;;;;;;10.10;99.50;;;;;;5050063;28;19980;-63
2022/02/22 09:29:00;;;;;;;;;;;9.80;99.90;;;;;;5016539;28;20324;-62
2022/02/22 09:31:26;;;;;;;;;;;9.60;99.90;;;;;;5034787;28;19905;-65
2022/02/22 09:33:52;;;;;;;;;;;9.60;99.90;;;;;;5034835;28;19905;-64
2022/02/22 09:36:17;;;;;;;;;;;9.70;99.90;;;;;;5018563;28;19905;-65
2022/02/22 09:38:43;;;;;;;;;;;9.70;99.90;;;;;;5017385;28;20099;-68
2022/02/22 09:41:10;;;;;;;;;;;9.60;99.90;;;;;;5025783;28;19909;-66
2022/02/22 09:43:35;;;;;;;;;;;11.00;99.90;;;;;;5055838;28;20316;-64
2022/02/22 09:46:01;;;;;;;;;;;11.80;99.90;;;;;;5038331;28;19917;-61
2022/02/22 09:48:26;;;;;;;;;;;12.10;99.90;;;;;;5056495;28;19984;-62
2022/02/22 09:50:53;;;;;;;;;;;12.50;99.90;;;;;;5037542;28;19931;-66
2022/02/22 09:53:18;;;;;;;;;;;12.20;99.90;;;;;;5037697;28;19911;-65
2022/02/22 09:55:44;;;;;;;;;;;12.20;98.40;;;;;;5056009;28;19999;-68
2022/02/22 09:58:09;;;;;;;;;;;11.60;97.20;;;;;;5038012;28;19927;-64
2022/02/22 10:00:35;;;;;;;;;;;11.10;98.10;;;;;;5055010;28;19926;-78
2022/02/22 10:03:01;;;;;;;;;;;10.90;99.20;;;;;;5054254;28;20017;-67
2022/02/22 10:05:27;;;;;;;;;;;11.70;99.90;;;;;;5035717;28;19909;-63
2022/02/22 10:07:57;;;;;;;;;;;12.40;99.90;;;;;;5053615;28;19905;-64
2022/02/22 10:10:39;;;;;;;;;;;12.10;99.90;;;;;;5021193;28;19959;-65
2022/02/22 10:13:06;;;;;;;;;;;13.10;99.90;;;;;;5023485;28;19999;-65
2022/02/22 10:15:35;;;;;;;;;;;13.00;99.90;;;;;;5036678;28;20361;-67
2022/02/22 10:18:01;;;;;;;;;;;12.20;98.00;;;;;;5009240;28;19921;-65
2022/02/22 10:20:27;;;;;;;;;;;10.80;99.90;;;;;;4994367;28;19932;-66
2022/02/22 10:22:54;;;;;;;;;;;10.70;99.90;;;;;;5010217;28;20399;-67
2022/02/22 10:25:20;;;;;;;;;;;10.30;99.90;;;;;;5006246;28;20001;-63
2022/02/22 10:27:47;;;;;;;;;;;10.10;99.90;;;;;;4994536;28;19910;-70
2022/02/22 10:30:22;;;;;;;;;;;9.90;99.90;;;;;;5012812;28;19992;-67
2022/02/22 10:32:48;;;;;;;;;;;9.70;99.90;;;;;;5009873;28;19964;-68
2022/02/22 10:35:13;;;;;;;;;;;9.80;99.90;;;;;;4995588;28;19910;-65
2022/02/22 10:37:39;;;;;;;;;;;9.90;99.90;;;;;;4993968;28;19913;-65
2022/02/22 10:40:05;;;;;;;;;;;9.70;99.90;;;;;;4993893;28;19913;-65
2022/02/22 10:42:37;;;;;;;;;;;9.60;99.90;;;;;;5011714;28;19918;-69
2022/02/22 10:45:09;;;;;;;;;;;9.70;99.90;;;;;;5014366;28;19913;-68
2022/02/22 10:47:38;;;;;;;;;;;9.80;99.90;;;;;;5014158;28;19905;-64
2022/02/22 10:50:05;;;;;;;;;;;9.70;99.90;;;;;;5013542;28;20374;-64
2022/02/22 10:52:31;;;;;;;;;;;9.80;99.90;;;;;;5012563;28;19909;-64
2022/02/22 10:54:57;;;;;;;;;;;9.80;99.90;;;;;;5013116;28;19913;-63
2022/02/22 10:57:22;;;;;;;;;;;9.80;99.90;;;;;;5012090;28;19960;-65
2022/02/22 10:59:48;;;;;;;;;;;9.70;99.90;;;;;;5012041;28;19905;-66
2022/02/22 11:02:14;;;;;;;;;;;9.70;99.90;;;;;;5013103;28;20008;-64
2022/02/22 11:04:41;;;;;;;;;;;9.90;99.90;;;;;;5013278;28;19909;-65
2022/02/22 11:07:07;;;;;;;;;;;9.60;99.90;;;;;;5013072;28;19912;-64
2022/02/22 11:09:33;;;;;;;;;;;9.90;99.90;;;;;;5012323;28;19905;-64
2022/02/22 11:12:02;;;;;;;;;;;9.80;99.90;;;;;;5011622;28;19913;-64
2022/02/22 11:14:29;;;;;;;;;;;10.20;99.90;;;;;;5013411;28;20385;-64
2022/02/22 11:16:55;;;;;;;;;;;10.10;99.90;;;;;;5022595;28;19917;-64
2022/02/22 11:19:22;;;;;;;;;;;10.10;99.90;;;;;;5053024;28;19909;-63
2022/02/22 11:21:50;;;;;;;;;;;10.40;99.90;;;;;;5052761;28;19904;-64
2022/02/22 11:24:18;;;;;;;;;;;10.50;99.90;;;;;;5052147;28;20353;-64
2022/02/22 11:26:45;;;;;;;;;;;10.50;99.90;;;;;;5053290;28;19904;-65
2022/02/22 11:29:11;;;;;;;;;;;10.70;99.90;;;;;;5054150;28;19915;-70
2022/02/22 11:31:36;;;;;;;;;;;11.00;99.90;;;;;;5053131;28;20261;-65
2022/02/22 11:34:03;;;;;;;;;;;10.90;99.90;;;;;;5051179;28;19927;-64
2022/02/22 11:36:30;;;;;;;;;;;10.80;99.90;;;;;;5055979;28;20003;-64
2022/02/22 11:38:56;;;;;;;;;;;11.00;99.90;;;;;;5054357;28;20376;-65
2022/02/22 11:41:24;;;;;;;;;;;10.70;99.90;;;;;;5055423;28;19952;-64
2022/02/22 11:43:50;;;;;;;;;;;10.90;99.90;;;;;;5055255;28;19913;-64
2022/02/22 11:46:16;;;;;;;;;;;11.10;99.90;;;;;;5056148;28;19913;-65
2022/02/22 11:48:42;;;;;;;;;;;11.10;99.90;;;;;;5055453;28;19912;-69
2022/02/22 11:51:12;;;;;;;;;;;10.90;99.90;;;;;;5056476;28;19905;-64
2022/02/22 11:53:37;;;;;;;;;;;10.90;99.90;;;;;;5056653;28;19904;-63
2022/02/22 11:56:03;;;;;;;;;;;10.80;99.90;;;;;;5054207;28;19931;-63
2022/02/22 11:58:33;;;;;;;;;;;10.60;99.90;;;;;;5052216;28;19931;-64
2022/02/22 12:01:05;;;;;;;;;;;10.50;99.90;;;;;;5053895;28;19948;-63
2022/02/22 12:03:40;;;;;;;;;;;10.40;99.90;;;;;;5056487;28;20007;-63
2022/02/22 12:06:06;;;;;;;;;;;10.30;99.90;;;;;;5055971;28;19932;-65
2022/02/22 12:08:40;;;;;;;;;;;10.40;99.90;;;;;;5054343;28;20273;-67
2022/02/22 12:11:07;;;;;;;;;;;10.40;99.90;;;;;;5036157;28;19951;-69
2022/02/22 12:13:40;;;;;;;;;;;10.20;99.90;;;;;;5034484;28;19905;-66
2022/02/22 12:16:13;;;;;;;;;;;10.00;99.90;;;;;;5035936;28;19991;-64
2022/02/22 12:18:41;;;;;;;;;;;9.90;99.90;;;;;;5054638;28;20366;-65
2022/02/22 12:21:07;;;;;;;;;;;10.10;99.90;;;;;;5037762;28;19904;-65
2022/02/22 12:23:32;;;;;;;;;;;10.20;99.90;;;;;;5038511;28;19904;-65
2022/02/22 12:26:03;;;;;;;;;;;10.20;99.90;;;;;;5055668;28;19931;-66
2022/02/22 12:28:28;;;;;;;;;;;10.20;99.90;;;;;;5038196;28;19900;-66
2022/02/22 12:30:58;;;;;;;;;;;10.20;99.90;;;;;;5055668;28;20342;-66
2022/02/22 12:33:33;;;;;;;;;;;10.30;99.90;;;;;;5039377;28;19901;-68
2022/02/22 12:36:11;;;;;;;;;;;10.20;99.90;;;;;;5039451;28;19907;-65
2022/02/22 12:38:37;;;;;;;;;;;9.90;99.90;;;;;;5056042;28;19900;-66
2022/02/22 12:41:10;;;;;;;;;;;9.80;99.90;;;;;;5055331;28;20222;-65
2022/02/22 12:43:46;;;;;;;;;;;9.70;99.90;;;;;;5038151;28;19911;-68
2022/02/22 12:46:11;;;;;;;;;;;9.70;99.90;;;;;;5037811;28;19966;-66
2022/02/22 12:48:41;;;;;;;;;;;9.70;99.90;;;;;;5037989;28;19901;-65
2022/02/22 12:51:06;;;;;;;;;;;9.90;99.90;;;;;;5055478;28;19927;-66
2022/02/22 12:53:32;;;;;;;;;;;9.80;99.90;;;;;;5037031;28;19905;-65
2022/02/22 12:55:58;;;;;;;;;;;9.70;99.90;;;;;;5036051;28;20330;-64
2022/02/22 12:58:33;;;;;;;;;;;9.70;99.90;;;;;;5037084;28;19946;-66
2022/02/22 13:01:16;;;;;;;;;;;9.70;99.90;;;;;;5019312;28;19940;-65
2022/02/22 13:03:42;;;;;;;;;;;9.70;99.90;;;;;;5036971;28;19987;-64
2022/02/22 13:06:14;;;;;;;;;;;9.60;99.90;;;;;;5035693;28;19905;-66
2022/02/22 13:08:40;;;;;;;;;;;9.70;99.90;;;;;;5018868;28;19901;-65
2022/02/22 13:11:06;;;;;;;;;;;9.60;99.90;;;;;;5036280;28;20232;-66
2022/02/22 13:13:32;;;;;;;;;;;9.60;99.90;;;;;;5035500;28;20270;-64
2022/02/22 13:16:11;;;;;;;;;;;9.60;99.90;;;;;;5019933;28;20282;-64
2022/02/22 13:18:37;;;;;;;;;;;9.60;99.90;;;;;;5029571;28;19920;-66
2022/02/22 13:21:12;;;;;;;;;;;9.60;99.90;;;;;;5054173;28;19904;-64
2022/02/22 13:23:38;;;;;;;;;;;9.70;99.90;;;;;;5037156;28;19940;-63
2022/02/22 13:26:04;;;;;;;;;;;9.70;99.90;;;;;;5037211;28;19904;-64
2022/02/22 13:28:34;;;;;;;;;;;9.80;99.90;;;;;;5046140;28;20354;-69
2022/02/22 13:31:00;;;;;;;;;;;9.70;99.90;;;;;;5038103;28;20064;-65
2022/02/22 13:33:25;;;;;;;;;;;9.70;99.90;;;;;;5034676;28;20269;-63
2022/02/22 13:35:54;;;;;;;;;;;9.70;99.90;;;;;;5033997;28;19951;-64
2022/02/22 13:38:21;;;;;;;;;;;9.80;99.90;;;;;;5016771;28;19901;-66
2022/02/22 13:40:46;;;;;;;;;;;9.70;99.90;;;;;;5034703;28;20027;-64
2022/02/22 13:43:14;;;;;;;;;;;9.70;99.90;;;;;;5037730;28;19913;-64
2022/02/22 13:45:40;;;;;;;;;;;9.80;99.90;;;;;;5042407;28;20049;-65
2022/02/22 13:48:08;;;;;;;;;;;9.90;99.90;;;;;;5054899;28;19901;-63
2022/02/22 13:50:34;;;;;;;;;;;10.00;99.90;;;;;;5036312;28;19908;-64
2022/02/22 13:53:09;;;;;;;;;;;10.00;99.90;;;;;;5054212;28;19900;-63
2022/02/22 13:56:01;;;;;;;;;;;9.80;99.90;;;;;;5054514;28;19909;-63
2022/02/22 13:58:28;;;;;;;;;;;9.60;99.90;;;;;;5054699;28;19907;-64
2022/02/22 14:00:55;;;;;;;;;;;9.50;99.90;;;;;;5035770;28;19936;-65
2022/02/22 14:03:21;;;;;;;;;;;9.60;99.90;;;;;;5023755;28;19916;-64
2022/02/22 14:05:46;;;;;;;;;;;9.50;99.90;;;;;;5016675;28;19905;-63
2022/02/22 14:08:12;;;;;;;;;;;9.50;99.90;;;;;;5033536;28;20235;-64
2022/02/22 14:10:39;;;;;;;;;;;9.50;99.90;;;;;;5033916;28;20331;-65
2022/02/22 14:13:04;;;;;;;;;;;9.30;99.90;;;;;;5039745;28;19905;-65
2022/02/22 14:15:30;;;;;;;;;;;9.40;99.90;;;;;;5053805;28;19974;-67
2022/02/22 14:17:55;;;;;;;;;;;9.40;99.90;;;;;;5020874;28;19914;-63
2022/02/22 14:20:21;;;;;;;;;;;9.30;99.90;;;;;;5013232;28;20338;-64
2022/02/22 14:22:47;;;;;;;;;;;9.40;99.90;;;;;;5001659;28;19972;-64